createdAt,value
2018-02-19T00:00:37.399Z,-3.90
2018-02-19T00:03:05.431Z,-4.00
2018-02-19T00:05:38.619Z,-3.90
2018-02-19T00:08:07.640Z,-3.80
2018-02-19T00:10:39.235Z,-3.80
2018-02-19T00:13:09.087Z,-3.80
2018-02-19T00:15:41.487Z,-3.80
2018-02-19T00:18:10.719Z,-3.80
2018-02-19T00:20:45.835Z,-3.70
2018-02-19T00:23:22.555Z,-3.60
2018-02-19T00:26:01.203Z,-3.70
2018-02-19T00:28:36.855Z,-3.60
2018-02-19T00:31:21.339Z,-3.50
2018-02-19T00:33:50.203Z,-3.40
2018-02-19T00:36:28.293Z,-3.40
2018-02-19T00:38:57.363Z,-3.40
2018-02-19T00:41:36.811Z,-3.40
2018-02-19T00:44:09.835Z,-3.50
2018-02-19T00:46:41.478Z,-3.50
2018-02-19T00:49:29.091Z,-3.40
2018-02-19T00:52:16.167Z,-3.50
2018-02-19T00:54:57.747Z,-3.50
2018-02-19T00:57:26.558Z,-3.60
2018-02-19T00:59:58.907Z,-3.60
2018-02-19T01:02:27.886Z,-3.70
2018-02-19T01:04:55.930Z,-3.70
2018-02-19T01:07:39.339Z,-3.70
2018-02-19T01:10:22.102Z,-3.70
2018-02-19T01:12:51.831Z,-3.90
2018-02-19T01:15:19.838Z,-3.90
2018-02-19T01:17:52.615Z,-3.90
2018-02-19T01:20:22.635Z,-3.80
2018-02-19T01:22:57.498Z,-3.80
2018-02-19T01:25:26.227Z,-3.90
2018-02-19T01:28:00.271Z,-3.90
2018-02-19T01:30:29.191Z,-3.90
2018-02-19T01:33:01.671Z,-3.80
2018-02-19T01:35:31.446Z,-3.80
2018-02-19T01:37:59.463Z,-3.80
2018-02-19T01:40:27.467Z,-3.90
2018-02-19T01:42:55.485Z,-3.90
2018-02-19T01:45:26.210Z,-4.00
2018-02-19T01:47:56.914Z,-4.00
2018-02-19T01:50:25.922Z,-4.00
2018-02-19T01:52:55.822Z,-4.00
2018-02-19T01:55:28.010Z,-3.90
2018-02-19T01:58:06.391Z,-3.90
2018-02-19T02:00:35.243Z,-3.90
2018-02-19T02:03:04.162Z,-3.90
2018-02-19T02:05:38.330Z,-4.00
2018-02-19T02:08:08.102Z,-4.00
2018-02-19T02:10:36.118Z,-4.00
2018-02-19T02:13:07.110Z,-4.00
2018-02-19T02:15:38.667Z,-4.10
2018-02-19T02:18:08.682Z,-4.00
2018-02-19T02:20:37.726Z,-4.00
2018-02-19T02:23:05.738Z,-4.10
2018-02-19T02:25:34.610Z,-4.10
2018-02-19T02:28:02.638Z,-4.10
2018-02-19T02:30:33.330Z,-4.20
2018-02-19T02:33:03.399Z,-4.20
2018-02-19T02:35:33.154Z,-4.20
2018-02-19T02:38:01.170Z,-4.20
2018-02-19T02:40:29.198Z,-4.20
2018-02-19T02:43:01.718Z,-4.20
2018-02-19T02:45:33.555Z,-4.30
2018-02-19T02:48:02.534Z,-4.40
2018-02-19T02:50:30.542Z,-4.40
2018-02-19T02:53:02.047Z,-4.40
2018-02-19T02:55:35.746Z,-4.40
2018-02-19T02:58:03.771Z,-4.50
2018-02-19T03:00:32.718Z,-4.60
2018-02-19T03:03:05.325Z,-4.70
2018-02-19T03:05:37.167Z,-4.80
2018-02-19T03:08:05.190Z,-4.80
2018-02-19T03:10:33.222Z,-4.80
2018-02-19T03:13:05.502Z,-4.80
2018-02-19T03:15:33.522Z,-4.80
2018-02-19T03:18:01.562Z,-4.90
2018-02-19T03:20:29.590Z,-5.00
2018-02-19T03:22:58.392Z,-5.20
2018-02-19T03:25:28.053Z,-5.20
2018-02-19T03:27:59.148Z,-5.20
2018-02-19T03:30:27.134Z,-5.30
2018-02-19T03:32:55.158Z,-5.20
2018-02-19T03:35:26.191Z,-5.10
2018-02-19T03:37:57.637Z,-5.00
2018-02-19T03:40:25.686Z,-5.00
2018-02-19T03:42:53.718Z,-5.10
2018-02-19T03:45:24.874Z,-5.30
2018-02-19T03:48:06.705Z,-5.30
2018-02-19T03:50:36.726Z,-5.40
2018-02-19T03:53:19.874Z,-5.40
2018-02-19T03:55:48.677Z,-5.20
2018-02-19T03:58:22.914Z,-5.30
2018-02-19T04:00:52.894Z,-5.30
2018-02-19T04:03:21.677Z,-5.50
2018-02-19T04:06:00.765Z,-5.60
2018-02-19T04:08:28.774Z,-5.60
2018-02-19T04:10:57.562Z,-5.70
2018-02-19T04:13:27.549Z,-5.70
2018-02-19T04:16:00.862Z,-5.70
2018-02-19T04:18:35.241Z,-5.70
2018-02-19T04:21:05.189Z,-5.70
2018-02-19T04:23:37.702Z,-5.70
2018-02-19T04:26:05.745Z,-5.70
2018-02-19T04:28:34.533Z,-6.30
2018-02-19T04:31:03.494Z,-6.30
2018-02-19T04:33:37.437Z,-6.50
2018-02-19T04:36:08.909Z,-6.40
2018-02-19T04:38:37.552Z,-6.50
2018-02-19T04:41:06.547Z,-6.30
2018-02-19T04:43:38.213Z,-6.30
2018-02-19T04:49:15.443Z,-6.30
2018-02-19T04:51:45.026Z,-6.50
2018-02-19T04:54:17.245Z,-6.50
2018-02-19T04:56:45.313Z,-6.50
2018-02-19T04:59:19.862Z,-6.80
2018-02-19T05:01:47.885Z,-6.90
2018-02-19T05:04:15.950Z,-7.10
2018-02-19T05:06:44.746Z,-7.30
2018-02-19T05:09:16.361Z,-7.30
2018-02-19T05:11:44.381Z,-7.30
2018-02-19T05:14:16.917Z,-7.30
2018-02-19T05:16:49.570Z,-7.50
2018-02-19T05:19:19.529Z,-7.50
2018-02-19T05:21:48.488Z,-7.50
2018-02-19T05:24:16.597Z,-7.40
2018-02-19T05:26:46.566Z,-7.40
2018-02-19T05:29:15.569Z,-7.50
2018-02-19T05:31:44.565Z,-7.30
2018-02-19T05:34:30.925Z,-7.30
2018-02-19T05:37:02.597Z,-7.40
2018-02-19T05:39:36.721Z,-7.40
2018-02-19T05:42:05.745Z,-7.30
2018-02-19T05:44:35.548Z,-7.30
2018-02-19T05:47:03.552Z,-7.30
2018-02-19T05:49:33.513Z,-7.20
2018-02-19T05:52:02.494Z,-7.30
2018-02-19T05:54:30.497Z,-7.50
2018-02-19T05:56:59.304Z,-7.80
2018-02-19T05:59:28.229Z,-7.80
2018-02-19T06:01:59.286Z,-7.80
2018-02-19T06:04:28.209Z,-7.60
2018-02-19T06:07:01.565Z,-7.50
2018-02-19T06:09:29.607Z,-7.60
2018-02-19T06:11:59.297Z,-7.60
2018-02-19T06:14:27.313Z,-7.60
2018-02-19T06:16:56.312Z,-7.40
2018-02-19T06:19:24.314Z,-7.30
2018-02-19T06:21:53.285Z,-7.10
2018-02-19T06:24:25.661Z,-6.90
2018-02-19T06:27:00.716Z,-6.70
2018-02-19T06:29:34.280Z,-6.60
2018-02-19T06:32:05.881Z,-6.50
2018-02-19T06:34:36.437Z,-6.40
2018-02-19T06:37:05.452Z,-6.20
2018-02-19T06:39:37.120Z,-5.90
2018-02-19T06:42:10.793Z,-5.60
2018-02-19T06:44:38.821Z,-5.40
2018-02-19T06:47:19.125Z,-5.20
2018-02-19T06:49:48.156Z,-5.20
2018-02-19T06:52:22.612Z,-5.10
2018-02-19T06:54:55.744Z,-4.90
2018-02-19T06:57:36.194Z,-4.70
2018-02-19T07:00:04.256Z,-4.40
2018-02-19T07:02:36.952Z,-4.20
2018-02-19T07:05:06.001Z,-3.90
2018-02-19T07:07:37.593Z,-3.50
2018-02-19T07:10:17.252Z,-3.60
2018-02-19T07:12:47.173Z,-3.20
2018-02-19T07:15:23.620Z,-2.60
2018-02-19T07:17:52.621Z,-1.90
2018-02-19T07:20:20.645Z,-1.30
2018-02-19T07:22:53.953Z,-0.90
2018-02-19T07:25:23.884Z,-1.00
2018-02-19T07:27:51.896Z,-1.30
2018-02-19T07:30:19.917Z,-1.50
2018-02-19T07:32:59.888Z,-1.90
2018-02-19T07:35:37.652Z,-2.30
2018-02-19T07:38:05.756Z,-2.70
2018-02-19T07:40:34.737Z,-2.80
2018-02-19T07:43:21.796Z,-2.70
2018-02-19T07:45:52.942Z,-2.20
2018-02-19T07:48:46.596Z,-1.70
2018-02-19T07:51:15.408Z,-1.70
2018-02-19T07:53:48.229Z,-1.70
2018-02-19T07:56:23.864Z,-1.80
2018-02-19T07:58:51.892Z,-2.10
2018-02-19T08:01:20.858Z,-2.30
2018-02-19T08:03:50.530Z,-2.30
2018-02-19T08:06:22.831Z,-2.10
2018-02-19T08:08:57.288Z,-1.90
2018-02-19T08:11:26.225Z,-1.40
2018-02-19T08:13:54.232Z,-1.10
2018-02-19T08:16:23.908Z,-0.20
2018-02-19T08:18:52.887Z,-0.20
2018-02-19T08:21:21.904Z,-0.10
2018-02-19T08:23:49.928Z,-0.20
2018-02-19T08:26:24.628Z,0.80
2018-02-19T08:28:56.553Z,3.40
2018-02-19T08:31:24.564Z,3.30
2018-02-19T08:33:56.000Z,4.20
2018-02-19T08:36:29.961Z,3.90
2018-02-19T08:39:03.692Z,3.90
2018-02-19T08:41:31.710Z,3.80
2018-02-19T08:44:01.660Z,3.70
2018-02-19T08:46:29.697Z,4.00
2018-02-19T08:48:59.640Z,4.20
2018-02-19T08:51:27.857Z,4.80
2018-02-19T08:53:57.620Z,5.30
2018-02-19T08:56:26.616Z,5.30
2018-02-19T08:58:54.664Z,5.60
2018-02-19T09:01:24.612Z,5.60
2018-02-19T09:03:53.592Z,5.20
2018-02-19T09:06:21.600Z,5.50
2018-02-19T09:08:52.300Z,5.80
2018-02-19T09:11:21.204Z,5.80
2018-02-19T09:13:50.976Z,6.10
2018-02-19T09:16:22.464Z,6.70
2018-02-19T09:18:50.497Z,7.20
2018-02-19T09:21:23.828Z,7.30
2018-02-19T09:23:51.840Z,7.40
2018-02-19T09:26:20.748Z,6.90
2018-02-19T09:28:48.764Z,6.90
2018-02-19T09:31:18.675Z,7.50
2018-02-19T09:33:47.644Z,7.50
2018-02-19T09:36:18.373Z,6.60
2018-02-19T09:38:46.396Z,6.60
2018-02-19T09:41:14.428Z,6.60
2018-02-19T09:43:44.444Z,6.90
2018-02-19T09:46:15.976Z,6.90
2018-02-19T09:48:54.884Z,6.90
2018-02-19T09:51:26.080Z,7.00
2018-02-19T09:53:54.096Z,6.60
2018-02-19T09:56:23.979Z,6.90
2018-02-19T09:58:52.751Z,7.20
2018-02-19T10:01:20.768Z,7.20
2018-02-19T10:03:55.606Z,7.10
2018-02-19T10:06:28.616Z,6.60
2018-02-19T10:08:57.700Z,6.40
2018-02-19T10:11:30.192Z,6.60
2018-02-19T10:14:01.940Z,6.40
2018-02-19T10:16:34.724Z,5.40
2018-02-19T10:19:06.380Z,5.00
2018-02-19T10:21:34.392Z,4.40
2018-02-19T10:24:07.639Z,4.10
2018-02-19T10:26:35.648Z,4.00
2018-02-19T10:29:04.432Z,3.20
2018-02-19T10:31:36.776Z,3.10
2018-02-19T10:34:04.800Z,3.10
2018-02-19T10:36:36.388Z,3.10
2018-02-19T10:39:04.423Z,3.10
2018-02-19T10:41:35.815Z,3.10
2018-02-19T10:44:03.832Z,3.30
2018-02-19T10:46:31.864Z,3.70
2018-02-19T10:49:03.292Z,3.70
2018-02-19T10:51:31.319Z,4.90
2018-02-19T10:54:01.278Z,7.30
2018-02-19T10:56:29.295Z,10.20
2018-02-19T10:58:59.282Z,11.70
2018-02-19T11:01:28.072Z,16.10
2018-02-19T11:03:57.044Z,16.00
2018-02-19T11:06:25.076Z,12.80
2018-02-19T11:08:54.100Z,10.80
2018-02-19T11:11:34.924Z,8.90
2018-02-19T11:14:02.960Z,7.40
2018-02-19T11:16:30.967Z,6.70
2018-02-19T11:19:03.684Z,6.00
2018-02-19T11:21:31.711Z,5.50
2018-02-19T11:24:05.159Z,7.80
2018-02-19T11:26:34.064Z,7.80
2018-02-19T11:29:02.091Z,8.20
2018-02-19T11:31:32.043Z,7.70
2018-02-19T11:34:00.056Z,7.30
2018-02-19T11:36:29.752Z,9.00
2018-02-19T11:39:01.848Z,8.90
2018-02-19T11:41:31.799Z,8.80
2018-02-19T11:44:00.787Z,7.10
2018-02-19T11:46:35.555Z,6.00
2018-02-19T11:49:04.331Z,7.70
2018-02-19T11:51:34.112Z,9.90
2018-02-19T11:54:07.807Z,9.90
2018-02-19T11:56:35.832Z,10.80
2018-02-19T11:59:04.808Z,11.00
2018-02-19T12:01:33.596Z,9.90
2018-02-19T12:04:05.418Z,9.50
2018-02-19T12:06:37.139Z,9.40
2018-02-19T12:09:07.127Z,8.80
2018-02-19T12:11:35.915Z,8.60
2018-02-19T12:14:21.924Z,8.20
2018-02-19T12:16:55.103Z,8.20
2018-02-19T12:19:31.611Z,8.60
2018-02-19T12:22:02.863Z,8.60
2018-02-19T12:24:30.887Z,9.10
2018-02-19T12:27:03.419Z,9.00
2018-02-19T12:29:32.411Z,9.00
2018-02-19T12:32:00.447Z,8.70
2018-02-19T12:34:28.447Z,8.80
2018-02-19T12:36:59.492Z,9.50
2018-02-19T12:39:34.912Z,9.90
2018-02-19T12:42:02.922Z,8.70
2018-02-19T12:44:30.940Z,7.30
2018-02-19T12:47:01.807Z,5.70
2018-02-19T12:49:31.747Z,4.90
2018-02-19T12:52:03.664Z,4.80
2018-02-19T12:54:33.342Z,6.90
2018-02-19T12:57:09.627Z,8.50
2018-02-19T12:59:38.535Z,8.40
2018-02-19T13:02:09.791Z,9.80
2018-02-19T13:04:37.799Z,9.90
2018-02-19T13:07:06.611Z,8.60
2018-02-19T13:09:35.390Z,8.70
2018-02-19T13:12:05.055Z,8.40
2018-02-19T13:14:33.087Z,8.40
2018-02-19T13:17:05.723Z,7.80
2018-02-19T13:19:34.519Z,7.10
2018-02-19T13:22:03.283Z,8.00
2018-02-19T13:24:33.279Z,8.00
2018-02-19T13:27:02.183Z,8.80
2018-02-19T13:29:34.411Z,8.50
2018-02-19T13:32:02.419Z,7.30
2018-02-19T13:34:31.391Z,6.20
2018-02-19T13:36:59.400Z,5.50
2018-02-19T13:39:28.181Z,5.10
2018-02-19T13:41:57.154Z,5.10
2018-02-19T13:44:28.807Z,5.20
2018-02-19T13:47:17.204Z,5.10
2018-02-19T13:49:46.107Z,5.00
2018-02-19T13:52:26.860Z,5.00
2018-02-19T13:54:56.819Z,5.20
2018-02-19T13:57:27.563Z,6.30
2018-02-19T14:00:01.271Z,6.30
2018-02-19T14:02:29.291Z,6.10
2018-02-19T14:05:20.920Z,5.90
2018-02-19T14:07:48.939Z,5.90
2018-02-19T14:10:16.967Z,5.80
2018-02-19T14:12:52.639Z,5.30
2018-02-19T14:15:22.667Z,5.40
2018-02-19T14:17:52.696Z,5.30
2018-02-19T14:20:21.667Z,5.40
2018-02-19T14:22:51.687Z,5.40
2018-02-19T14:25:19.693Z,4.70
2018-02-19T14:27:54.971Z,5.10
2018-02-19T14:30:22.984Z,5.10
2018-02-19T14:32:56.673Z,5.50
2018-02-19T14:35:24.695Z,5.50
2018-02-19T14:37:52.760Z,5.10
2018-02-19T14:40:20.735Z,4.50
2018-02-19T14:42:50.740Z,4.00
2018-02-19T14:45:28.459Z,3.80
2018-02-19T14:47:59.615Z,3.40
2018-02-19T14:50:32.283Z,3.30
2018-02-19T14:53:01.296Z,3.30
2018-02-19T14:55:33.804Z,3.10
2018-02-19T14:58:03.588Z,2.90
2018-02-19T15:00:31.603Z,2.90
2018-02-19T15:03:09.471Z,2.80
2018-02-19T15:05:47.119Z,2.80
2018-02-19T15:08:15.158Z,2.60
2018-02-19T15:10:45.847Z,2.70
2018-02-19T15:13:25.147Z,2.70
2018-02-19T15:15:57.247Z,2.60
2018-02-19T15:18:25.263Z,2.40
2018-02-19T15:20:55.055Z,2.10
2018-02-19T15:23:34.339Z,2.10
2018-02-19T15:26:07.395Z,2.10
2018-02-19T15:28:35.395Z,2.00
2018-02-19T15:31:04.299Z,1.90
2018-02-19T15:33:32.319Z,1.90
2018-02-19T15:36:01.991Z,1.70
2018-02-19T15:38:35.075Z,1.70
2018-02-19T15:41:06.923Z,1.60
2018-02-19T15:43:35.819Z,1.50
2018-02-19T15:46:07.287Z,1.50
2018-02-19T15:48:36.267Z,1.40
2018-02-19T15:51:05.270Z,1.30
2018-02-19T15:53:35.171Z,1.30
2018-02-19T15:56:04.102Z,1.30
2018-02-19T15:58:40.083Z,1.10
2018-02-19T16:01:11.138Z,1.00
2018-02-19T16:03:41.050Z,0.90
2018-02-19T16:06:16.802Z,0.70
2018-02-19T16:08:49.046Z,0.50
2018-02-19T16:11:18.822Z,0.40
2018-02-19T16:13:50.450Z,0.40
2018-02-19T16:16:19.386Z,0.30
2018-02-19T16:18:50.090Z,0.10
2018-02-19T16:21:26.623Z,0.10
2018-02-19T16:23:55.638Z,0.00
2018-02-19T16:26:24.642Z,-0.10
2018-02-19T16:29:00.978Z,-0.20
2018-02-19T16:31:31.442Z,-0.30
2018-02-19T16:34:03.594Z,-0.50
2018-02-19T16:36:35.249Z,-0.60
2018-02-19T16:39:03.318Z,-0.70
2018-02-19T16:41:35.689Z,-0.80
2018-02-19T16:44:03.741Z,-0.90
2018-02-19T16:46:32.813Z,-1.10
2018-02-19T16:49:04.722Z,-1.30
2018-02-19T16:51:34.659Z,-1.30
2018-02-19T16:54:08.413Z,-1.30
2018-02-19T16:56:36.434Z,-1.30
2018-02-19T16:59:17.326Z,-1.30
2018-02-19T17:02:00.029Z,-1.40
2018-02-19T17:04:28.814Z,-1.60
2018-02-19T17:07:04.925Z,-1.70
2018-02-19T17:09:34.859Z,-1.70
2018-02-19T17:12:12.637Z,-1.70
2018-02-19T17:14:51.450Z,-1.80
2018-02-19T17:17:29.121Z,-1.90
2018-02-19T17:19:57.154Z,-1.90
2018-02-19T17:22:26.298Z,-1.90
2018-02-19T17:25:08.998Z,-1.90
2018-02-19T17:27:37.934Z,-1.90
2018-02-19T17:30:05.943Z,-2.00
2018-02-19T17:32:34.717Z,-2.10
2018-02-19T17:35:09.233Z,-2.10
2018-02-19T17:37:39.222Z,-2.10
2018-02-19T17:40:11.148Z,-2.20
2018-02-19T17:42:39.169Z,-2.20
2018-02-19T17:45:12.454Z,-2.30
2018-02-19T17:47:41.442Z,-2.30
2018-02-19T17:50:09.462Z,-2.40
2018-02-19T17:52:40.873Z,-2.40
2018-02-19T17:55:09.786Z,-2.50
2018-02-19T17:57:39.558Z,-2.60
2018-02-19T18:00:12.034Z,-2.70
2018-02-19T18:02:41.026Z,-2.70
2018-02-19T18:05:12.946Z,-2.80
2018-02-19T18:07:49.566Z,-2.80
2018-02-19T18:10:17.591Z,-2.90
2018-02-19T18:12:46.527Z,-3.00
2018-02-19T18:15:19.058Z,-3.00
2018-02-19T18:17:52.970Z,-3.00
2018-02-19T18:20:21.965Z,-3.10
2018-02-19T18:22:49.986Z,-3.10
2018-02-19T18:25:23.657Z,-3.10
2018-02-19T18:27:57.426Z,-3.20
2018-02-19T18:30:36.078Z,-3.20
2018-02-19T18:33:06.105Z,-3.20
2018-02-19T18:35:34.338Z,-3.30
2018-02-19T18:38:03.281Z,-3.40
2018-02-19T18:40:33.320Z,-3.40
2018-02-19T18:43:11.634Z,-3.40
2018-02-19T18:45:41.338Z,-3.40
2018-02-19T18:48:09.358Z,-3.40
2018-02-19T18:50:37.419Z,-3.30
2018-02-19T18:53:06.206Z,-3.30
2018-02-19T18:55:34.238Z,-3.40
2018-02-19T18:58:03.022Z,-3.40
2018-02-19T19:00:33.722Z,-3.50
2018-02-19T19:03:11.494Z,-3.50
2018-02-19T19:05:40.517Z,-3.50
2018-02-19T19:08:21.425Z,-3.60
2018-02-19T19:10:51.546Z,-3.60
2018-02-19T19:13:20.350Z,-3.60
2018-02-19T19:15:50.165Z,-3.60
2018-02-19T19:18:18.178Z,-3.60
2018-02-19T19:20:51.378Z,-3.60
2018-02-19T19:23:19.402Z,-3.60
2018-02-19T19:25:47.430Z,-3.50
2018-02-19T19:28:15.450Z,-3.40
2018-02-19T19:30:45.170Z,-3.30
2018-02-19T19:33:14.170Z,-3.20
2018-02-19T19:35:56.641Z,-3.10
2018-02-19T19:38:26.589Z,-3.10
2018-02-19T19:40:56.642Z,-3.20
2018-02-19T19:43:24.672Z,-3.30
2018-02-19T19:45:52.689Z,-3.40
2018-02-19T19:48:21.465Z,-3.60
2018-02-19T19:50:51.377Z,-3.60
2018-02-19T19:53:21.566Z,-3.70
2018-02-19T19:55:53.952Z,-3.80
2018-02-19T19:58:23.957Z,-3.90
2018-02-19T20:00:51.973Z,-4.00
2018-02-19T20:03:22.665Z,-4.00
2018-02-19T20:05:53.701Z,-4.00
2018-02-19T20:08:27.528Z,-4.00
2018-02-19T20:10:55.581Z,-3.90
2018-02-19T20:13:23.621Z,-4.00
2018-02-19T20:15:52.669Z,-4.10
2018-02-19T20:18:26.041Z,-4.20
2018-02-19T20:20:56.057Z,-4.30
2018-02-19T20:23:25.046Z,-4.40
2018-02-19T20:25:56.201Z,-4.50
2018-02-19T20:28:26.201Z,-4.50
2018-02-19T20:30:55.358Z,-4.60
2018-02-19T20:33:23.849Z,-4.60
2018-02-19T20:35:53.801Z,-4.60
2018-02-19T20:38:23.826Z,-4.50
2018-02-19T20:40:58.541Z,-4.60
2018-02-19T20:43:28.561Z,-4.70
2018-02-19T20:45:57.577Z,-4.70
2018-02-19T20:48:25.593Z,-4.70
2018-02-19T20:50:53.625Z,-4.70
2018-02-19T20:53:22.569Z,-4.60
2018-02-19T20:55:50.593Z,-4.60
2018-02-19T20:58:21.285Z,-4.60
2018-02-19T21:00:49.297Z,-4.60
2018-02-19T21:03:18.973Z,-4.60
2018-02-19T21:05:52.838Z,-4.60
2018-02-19T21:08:22.801Z,-4.50
2018-02-19T21:10:54.481Z,-4.40
2018-02-19T21:13:24.811Z,-4.20
2018-02-19T21:15:52.797Z,-4.20
2018-02-19T21:18:22.749Z,-4.10
2018-02-19T21:20:52.652Z,-4.10
2018-02-19T21:23:20.681Z,-4.10
2018-02-19T21:25:49.153Z,-4.10
2018-02-19T21:28:18.925Z,-4.00
2018-02-19T21:30:50.389Z,-4.00
2018-02-19T21:33:21.929Z,-3.90
2018-02-19T21:35:49.961Z,-3.90
2018-02-19T21:38:18.889Z,-3.90
2018-02-19T21:40:48.906Z,-3.90
2018-02-19T21:43:30.273Z,-4.00
2018-02-19T21:46:03.573Z,-4.00
2018-02-19T21:48:32.577Z,-4.00
2018-02-19T21:51:02.593Z,-3.90
2018-02-19T21:53:32.056Z,-3.80
2018-02-19T21:56:11.605Z,-3.70
2018-02-19T21:58:39.637Z,-3.60
2018-02-19T22:01:12.498Z,-3.40
2018-02-19T22:03:40.530Z,-3.40
2018-02-19T22:06:10.468Z,-3.30
2018-02-19T22:08:44.932Z,-3.30
2018-02-19T22:11:12.909Z,-3.20
2018-02-19T22:13:41.849Z,-3.20
2018-02-19T22:16:10.842Z,-3.10
2018-02-19T22:18:50.057Z,-3.10
2018-02-19T22:21:21.997Z,-3.00
2018-02-19T22:23:50.015Z,-3.00
2018-02-19T22:26:21.357Z,-3.00
2018-02-19T22:28:53.009Z,-3.00
2018-02-19T22:31:26.721Z,-3.00
2018-02-19T22:33:54.749Z,-3.00
2018-02-19T22:36:23.764Z,-3.00
2018-02-19T22:38:52.790Z,-3.00
2018-02-19T22:41:27.457Z,-3.10
2018-02-19T22:44:02.301Z,-3.10
2018-02-19T22:46:32.264Z,-3.10
2018-02-19T22:49:03.077Z,-3.10
2018-02-19T22:51:31.109Z,-3.10
2018-02-19T22:54:01.085Z,-3.00
2018-02-19T22:56:30.769Z,-3.00
2018-02-19T22:58:59.773Z,-3.00
2018-02-19T23:01:28.749Z,-3.10
2018-02-19T23:03:57.912Z,-3.10
2018-02-19T23:06:30.005Z,-3.10
2018-02-19T23:08:59.021Z,-3.10
2018-02-19T23:11:27.037Z,-3.10
2018-02-19T23:14:00.096Z,-3.00
2018-02-19T23:16:30.905Z,-3.10
2018-02-19T23:18:58.939Z,-3.10
2018-02-19T23:21:27.780Z,-3.10
2018-02-19T23:23:56.800Z,-3.10
2018-02-19T23:26:27.472Z,-3.10
2018-02-19T23:28:55.504Z,-3.10
2018-02-19T23:31:23.540Z,-3.10
2018-02-19T23:33:54.240Z,-3.10
2018-02-19T23:36:29.357Z,-3.10
2018-02-19T23:38:58.288Z,-3.10
2018-02-19T23:41:26.356Z,-3.10
2018-02-19T23:43:57.893Z,-3.10
2018-02-19T23:46:25.936Z,-3.10
2018-02-19T23:48:55.888Z,-3.10
2018-02-19T23:51:28.888Z,-3.10
2018-02-19T23:53:59.604Z,-3.10
2018-02-19T23:56:27.640Z,-3.10
2018-02-19T23:58:55.662Z,-3.10
